sensor_id;sensor_type;location;lat;lon;timestamp;temperature;humidity
11087;DHT22;5597;47.588;9.642;2023-07-13T00:02:10;18.50;99.90
11087;DHT22;5597;47.588;9.642;2023-07-13T00:04:35;18.50;99.90
11087;DHT22;5597;47.588;9.642;2023-07-13T00:07:01;18.40;99.90
11087;DHT22;5597;47.588;9.642;2023-07-13T00:09:28;18.50;99.90
11087;DHT22;5597;47.588;9.642;2023-07-13T00:11:55;18.40;99.90
11087;DHT22;5597;47.588;9.642;2023-07-13T00:14:21;18.40;99.90
11087;DHT22;5597;47.588;9.642;2023-07-13T00:16:47;18.40;99.90
11087;DHT22;5597;47.588;9.642;2023-07-13T00:19:13;18.40;99.90
11087;DHT22;5597;47.588;9.642;2023-07-13T00:21:40;18.40;99.90
11087;DHT22;5597;47.588;9.642;2023-07-13T00:24:07;18.40;99.90
11087;DHT22;5597;47.588;9.642;2023-07-13T00:26:33;18.40;99.90
11087;DHT22;5597;47.588;9.642;2023-07-13T00:28:59;18.40;99.90
11087;DHT22;5597;47.588;9.642;2023-07-13T00:31:25;18.40;99.90
11087;DHT22;5597;47.588;9.642;2023-07-13T00:33:51;18.30;99.90
11087;DHT22;5597;47.588;9.642;2023-07-13T00:36:17;18.40;99.90
11087;DHT22;5597;47.588;9.642;2023-07-13T00:38:43;18.40;99.90
11087;DHT22;5597;47.588;9.642;2023-07-13T00:41:09;18.40;99.90
11087;DHT22;5597;47.588;9.642;2023-07-13T00:43:35;18.40;99.90
11087;DHT22;5597;47.588;9.642;2023-07-13T00:48:46;18.30;99.90
11087;DHT22;5597;47.588;9.642;2023-07-13T00:51:14;18.20;99.90
11087;DHT22;5597;47.588;9.642;2023-07-13T00:53:40;18.20;99.90
11087;DHT22;5597;47.588;9.642;2023-07-13T00:56:06;18.20;99.90
11087;DHT22;5597;47.588;9.642;2023-07-13T00:58:32;18.20;99.90
11087;DHT22;5597;47.588;9.642;2023-07-13T01:00:58;18.20;99.90
11087;DHT22;5597;47.588;9.642;2023-07-13T01:03:24;18.20;99.90
11087;DHT22;5597;47.588;9.642;2023-07-13T01:05:50;18.10;99.90
11087;DHT22;5597;47.588;9.642;2023-07-13T01:08:16;18.20;99.90
11087;DHT22;5597;47.588;9.642;2023-07-13T01:10:51;18.20;99.90
11087;DHT22;5597;47.588;9.642;2023-07-13T01:13:17;18.20;99.90
11087;DHT22;5597;47.588;9.642;2023-07-13T01:15:45;18.20;99.90
11087;DHT22;5597;47.588;9.642;2023-07-13T01:18:13;18.20;99.90
11087;DHT22;5597;47.588;9.642;2023-07-13T01:20:40;18.20;99.90
11087;DHT22;5597;47.588;9.642;2023-07-13T01:23:09;18.20;99.90
11087;DHT22;5597;47.588;9.642;2023-07-13T01:25:36;18.20;99.90
11087;DHT22;5597;47.588;9.642;2023-07-13T01:28:05;18.20;99.90
11087;DHT22;5597;47.588;9.642;2023-07-13T01:30:30;18.20;99.90
11087;DHT22;5597;47.588;9.642;2023-07-13T01:32:57;18.20;99.90
11087;DHT22;5597;47.588;9.642;2023-07-13T01:35:23;18.20;99.90
11087;DHT22;5597;47.588;9.642;2023-07-13T01:37:51;18.20;99.90
11087;DHT22;5597;47.588;9.642;2023-07-13T01:40:16;18.20;99.90
11087;DHT22;5597;47.588;9.642;2023-07-13T01:42:42;18.20;99.90
11087;DHT22;5597;47.588;9.642;2023-07-13T01:45:08;18.20;99.90
11087;DHT22;5597;47.588;9.642;2023-07-13T01:47:33;18.10;99.90
11087;DHT22;5597;47.588;9.642;2023-07-13T01:49:59;18.10;99.90
11087;DHT22;5597;47.588;9.642;2023-07-13T01:52:24;18.20;99.90
11087;DHT22;5597;47.588;9.642;2023-07-13T01:54:50;18.20;99.90
11087;DHT22;5597;47.588;9.642;2023-07-13T01:57:16;18.20;99.90
11087;DHT22;5597;47.588;9.642;2023-07-13T01:59:41;18.20;99.90
11087;DHT22;5597;47.588;9.642;2023-07-13T02:02:07;18.20;99.90
11087;DHT22;5597;47.588;9.642;2023-07-13T02:04:34;18.20;99.90
11087;DHT22;5597;47.588;9.642;2023-07-13T02:07:00;18.20;99.90
11087;DHT22;5597;47.588;9.642;2023-07-13T02:09:25;18.20;99.90
11087;DHT22;5597;47.588;9.642;2023-07-13T02:11:51;18.20;99.90
11087;DHT22;5597;47.588;9.642;2023-07-13T02:14:16;18.20;99.90
11087;DHT22;5597;47.588;9.642;2023-07-13T02:16:42;18.20;99.90
11087;DHT22;5597;47.588;9.642;2023-07-13T02:19:08;18.20;99.90
11087;DHT22;5597;47.588;9.642;2023-07-13T02:21:34;18.20;99.90
11087;DHT22;5597;47.588;9.642;2023-07-13T02:23:59;18.20;99.90
11087;DHT22;5597;47.588;9.642;2023-07-13T02:26:26;18.10;99.90
11087;DHT22;5597;47.588;9.642;2023-07-13T02:28:51;18.20;99.90
11087;DHT22;5597;47.588;9.642;2023-07-13T02:31:17;18.10;99.90
11087;DHT22;5597;47.588;9.642;2023-07-13T02:33:43;18.10;99.90
11087;DHT22;5597;47.588;9.642;2023-07-13T02:36:09;18.00;99.90
11087;DHT22;5597;47.588;9.642;2023-07-13T02:38:35;18.00;99.90
11087;DHT22;5597;47.588;9.642;2023-07-13T02:41:05;18.00;99.90
11087;DHT22;5597;47.588;9.642;2023-07-13T02:43:32;18.00;99.90
11087;DHT22;5597;47.588;9.642;2023-07-13T02:45:59;18.00;99.90
11087;DHT22;5597;47.588;9.642;2023-07-13T02:48:29;18.00;99.90
11087;DHT22;5597;47.588;9.642;2023-07-13T02:50:55;18.00;99.90
11087;DHT22;5597;47.588;9.642;2023-07-13T02:53:21;18.00;99.90
11087;DHT22;5597;47.588;9.642;2023-07-13T02:55:46;18.00;99.90
11087;DHT22;5597;47.588;9.642;2023-07-13T02:58:13;18.10;99.90
11087;DHT22;5597;47.588;9.642;2023-07-13T03:00:42;18.10;99.90
11087;DHT22;5597;47.588;9.642;2023-07-13T03:03:08;18.10;99.90
11087;DHT22;5597;47.588;9.642;2023-07-13T03:05:34;18.10;99.90
11087;DHT22;5597;47.588;9.642;2023-07-13T03:07:59;18.10;99.90
11087;DHT22;5597;47.588;9.642;2023-07-13T03:10:25;18.10;99.90
11087;DHT22;5597;47.588;9.642;2023-07-13T03:12:50;18.10;99.90
11087;DHT22;5597;47.588;9.642;2023-07-13T03:15:16;18.10;99.90
11087;DHT22;5597;47.588;9.642;2023-07-13T03:17:41;18.00;99.90
11087;DHT22;5597;47.588;9.642;2023-07-13T03:20:07;18.10;99.90
11087;DHT22;5597;47.588;9.642;2023-07-13T03:22:33;18.10;99.90
11087;DHT22;5597;47.588;9.642;2023-07-13T03:24:58;18.10;99.90
11087;DHT22;5597;47.588;9.642;2023-07-13T03:27:24;18.10;99.90
11087;DHT22;5597;47.588;9.642;2023-07-13T03:29:49;18.00;99.90
11087;DHT22;5597;47.588;9.642;2023-07-13T03:32:15;18.00;99.90
11087;DHT22;5597;47.588;9.642;2023-07-13T03:34:41;18.00;99.90
11087;DHT22;5597;47.588;9.642;2023-07-13T03:37:06;18.00;99.90
11087;DHT22;5597;47.588;9.642;2023-07-13T03:39:32;18.00;99.90
11087;DHT22;5597;47.588;9.642;2023-07-13T03:41:57;18.10;99.90
11087;DHT22;5597;47.588;9.642;2023-07-13T03:44:23;18.10;99.90
11087;DHT22;5597;47.588;9.642;2023-07-13T03:46:48;18.00;99.90
11087;DHT22;5597;47.588;9.642;2023-07-13T03:49:14;18.00;99.90
11087;DHT22;5597;47.588;9.642;2023-07-13T03:51:39;18.00;99.90
11087;DHT22;5597;47.588;9.642;2023-07-13T03:54:05;18.00;99.90
11087;DHT22;5597;47.588;9.642;2023-07-13T03:56:31;18.00;99.90
11087;DHT22;5597;47.588;9.642;2023-07-13T03:58:58;18.00;99.90
11087;DHT22;5597;47.588;9.642;2023-07-13T04:01:24;18.00;99.90
11087;DHT22;5597;47.588;9.642;2023-07-13T04:03:53;18.00;99.90
11087;DHT22;5597;47.588;9.642;2023-07-13T04:06:21;18.00;99.90
11087;DHT22;5597;47.588;9.642;2023-07-13T04:08:52;18.00;99.90
11087;DHT22;5597;47.588;9.642;2023-07-13T04:11:20;18.00;99.90
11087;DHT22;5597;47.588;9.642;2023-07-13T04:13:46;18.00;99.90
11087;DHT22;5597;47.588;9.642;2023-07-13T04:16:13;18.00;99.90
11087;DHT22;5597;47.588;9.642;2023-07-13T04:18:39;18.00;99.90
11087;DHT22;5597;47.588;9.642;2023-07-13T04:21:04;18.00;99.90
11087;DHT22;5597;47.588;9.642;2023-07-13T04:23:30;18.00;99.90
11087;DHT22;5597;47.588;9.642;2023-07-13T04:25:56;18.00;99.90
11087;DHT22;5597;47.588;9.642;2023-07-13T04:28:23;18.00;99.90
11087;DHT22;5597;47.588;9.642;2023-07-13T04:30:50;18.00;99.90
11087;DHT22;5597;47.588;9.642;2023-07-13T04:33:16;18.00;99.90
11087;DHT22;5597;47.588;9.642;2023-07-13T04:35:43;18.00;99.90
11087;DHT22;5597;47.588;9.642;2023-07-13T04:38:08;18.00;99.90
11087;DHT22;5597;47.588;9.642;2023-07-13T04:40:37;18.00;99.90
11087;DHT22;5597;47.588;9.642;2023-07-13T04:43:02;18.00;99.90
11087;DHT22;5597;47.588;9.642;2023-07-13T04:45:28;18.00;99.90
11087;DHT22;5597;47.588;9.642;2023-07-13T04:47:53;18.00;99.90
11087;DHT22;5597;47.588;9.642;2023-07-13T04:50:19;18.10;99.90
11087;DHT22;5597;47.588;9.642;2023-07-13T04:52:49;18.10;99.90
11087;DHT22;5597;47.588;9.642;2023-07-13T04:55:15;18.10;99.90
11087;DHT22;5597;47.588;9.642;2023-07-13T04:57:40;18.10;99.90
11087;DHT22;5597;47.588;9.642;2023-07-13T05:00:06;18.10;99.90
11087;DHT22;5597;47.588;9.642;2023-07-13T05:02:33;18.10;99.90
11087;DHT22;5597;47.588;9.642;2023-07-13T05:04:59;18.20;99.90
11087;DHT22;5597;47.588;9.642;2023-07-13T05:07:26;18.20;99.90
11087;DHT22;5597;47.588;9.642;2023-07-13T05:09:51;18.20;99.90
11087;DHT22;5597;47.588;9.642;2023-07-13T05:12:17;18.20;99.90
11087;DHT22;5597;47.588;9.642;2023-07-13T05:14:43;18.20;99.90
11087;DHT22;5597;47.588;9.642;2023-07-13T05:17:09;18.20;99.90
11087;DHT22;5597;47.588;9.642;2023-07-13T05:19:35;18.10;99.90
11087;DHT22;5597;47.588;9.642;2023-07-13T05:22:01;18.10;99.90
11087;DHT22;5597;47.588;9.642;2023-07-13T05:24:27;18.00;99.90
11087;DHT22;5597;47.588;9.642;2023-07-13T05:26:53;17.90;99.90
11087;DHT22;5597;47.588;9.642;2023-07-13T05:29:20;17.90;99.90
11087;DHT22;5597;47.588;9.642;2023-07-13T05:31:45;17.90;99.90
11087;DHT22;5597;47.588;9.642;2023-07-13T05:34:11;17.90;99.90
11087;DHT22;5597;47.588;9.642;2023-07-13T05:36:37;17.90;99.90
11087;DHT22;5597;47.588;9.642;2023-07-13T05:39:03;17.90;99.90
11087;DHT22;5597;47.588;9.642;2023-07-13T05:41:29;17.90;99.90
11087;DHT22;5597;47.588;9.642;2023-07-13T05:43:55;18.00;99.90
11087;DHT22;5597;47.588;9.642;2023-07-13T05:46:20;18.00;99.90
11087;DHT22;5597;47.588;9.642;2023-07-13T05:48:46;18.10;99.90
11087;DHT22;5597;47.588;9.642;2023-07-13T05:51:11;18.10;99.90
11087;DHT22;5597;47.588;9.642;2023-07-13T05:53:38;18.10;99.90
11087;DHT22;5597;47.588;9.642;2023-07-13T05:56:03;18.20;99.90
11087;DHT22;5597;47.588;9.642;2023-07-13T05:58:29;18.20;99.90
11087;DHT22;5597;47.588;9.642;2023-07-13T06:01:06;18.20;99.90
11087;DHT22;5597;47.588;9.642;2023-07-13T06:03:32;18.20;99.90
11087;DHT22;5597;47.588;9.642;2023-07-13T06:05:58;18.20;99.90
11087;DHT22;5597;47.588;9.642;2023-07-13T06:08:26;18.30;99.90
11087;DHT22;5597;47.588;9.642;2023-07-13T06:10:51;18.30;99.90
11087;DHT22;5597;47.588;9.642;2023-07-13T06:13:17;18.30;99.90
11087;DHT22;5597;47.588;9.642;2023-07-13T06:15:50;18.40;99.90
11087;DHT22;5597;47.588;9.642;2023-07-13T06:18:16;18.40;99.90
11087;DHT22;5597;47.588;9.642;2023-07-13T06:20:42;18.50;99.90
11087;DHT22;5597;47.588;9.642;2023-07-13T06:23:07;18.50;99.90
11087;DHT22;5597;47.588;9.642;2023-07-13T06:25:33;18.50;99.90
11087;DHT22;5597;47.588;9.642;2023-07-13T06:27:59;18.50;99.90
11087;DHT22;5597;47.588;9.642;2023-07-13T06:30:24;18.50;99.90
11087;DHT22;5597;47.588;9.642;2023-07-13T06:32:50;18.50;99.90
11087;DHT22;5597;47.588;9.642;2023-07-13T06:35:16;18.50;99.90
11087;DHT22;5597;47.588;9.642;2023-07-13T06:37:41;18.50;99.90
11087;DHT22;5597;47.588;9.642;2023-07-13T06:40:07;18.60;99.90
11087;DHT22;5597;47.588;9.642;2023-07-13T06:42:33;18.70;99.90
11087;DHT22;5597;47.588;9.642;2023-07-13T06:44:58;18.70;99.90
11087;DHT22;5597;47.588;9.642;2023-07-13T06:47:24;18.70;99.90
11087;DHT22;5597;47.588;9.642;2023-07-13T06:49:50;18.80;99.90
11087;DHT22;5597;47.588;9.642;2023-07-13T06:52:15;18.70;99.90
11087;DHT22;5597;47.588;9.642;2023-07-13T06:54:41;18.80;99.90
11087;DHT22;5597;47.588;9.642;2023-07-13T06:57:06;18.80;99.90
11087;DHT22;5597;47.588;9.642;2023-07-13T06:59:32;18.80;99.90
11087;DHT22;5597;47.588;9.642;2023-07-13T07:01:58;18.80;99.90
11087;DHT22;5597;47.588;9.642;2023-07-13T07:04:23;18.90;99.90
11087;DHT22;5597;47.588;9.642;2023-07-13T07:06:49;18.90;99.90
11087;DHT22;5597;47.588;9.642;2023-07-13T07:09:14;18.90;99.90
11087;DHT22;5597;47.588;9.642;2023-07-13T07:11:42;19.00;99.90
11087;DHT22;5597;47.588;9.642;2023-07-13T07:14:07;18.90;99.90
11087;DHT22;5597;47.588;9.642;2023-07-13T07:16:33;18.90;99.90
11087;DHT22;5597;47.588;9.642;2023-07-13T07:18:59;18.90;99.90
11087;DHT22;5597;47.588;9.642;2023-07-13T07:21:24;18.80;99.90
11087;DHT22;5597;47.588;9.642;2023-07-13T07:23:52;18.80;99.90
11087;DHT22;5597;47.588;9.642;2023-07-13T07:26:18;18.80;99.90
11087;DHT22;5597;47.588;9.642;2023-07-13T07:28:44;18.80;99.90
11087;DHT22;5597;47.588;9.642;2023-07-13T07:31:09;18.80;99.90
11087;DHT22;5597;47.588;9.642;2023-07-13T07:33:35;18.80;99.90
11087;DHT22;5597;47.588;9.642;2023-07-13T07:36:01;18.70;99.90
11087;DHT22;5597;47.588;9.642;2023-07-13T07:38:27;18.70;99.90
11087;DHT22;5597;47.588;9.642;2023-07-13T07:40:53;18.70;99.90
11087;DHT22;5597;47.588;9.642;2023-07-13T07:43:19;18.70;99.90
11087;DHT22;5597;47.588;9.642;2023-07-13T07:45:45;18.70;99.90
11087;DHT22;5597;47.588;9.642;2023-07-13T07:48:11;18.70;99.90
11087;DHT22;5597;47.588;9.642;2023-07-13T07:50:37;18.70;99.90
11087;DHT22;5597;47.588;9.642;2023-07-13T07:53:04;18.70;99.90
11087;DHT22;5597;47.588;9.642;2023-07-13T07:55:33;18.70;99.90
11087;DHT22;5597;47.588;9.642;2023-07-13T07:57:59;18.70;99.90
11087;DHT22;5597;47.588;9.642;2023-07-13T08:00:24;18.70;99.90
11087;DHT22;5597;47.588;9.642;2023-07-13T08:02:50;18.70;99.90
11087;DHT22;5597;47.588;9.642;2023-07-13T08:05:16;18.70;99.90
11087;DHT22;5597;47.588;9.642;2023-07-13T08:07:42;18.60;99.90
11087;DHT22;5597;47.588;9.642;2023-07-13T08:10:10;18.60;99.90
11087;DHT22;5597;47.588;9.642;2023-07-13T08:12:40;18.60;99.90
11087;DHT22;5597;47.588;9.642;2023-07-13T08:15:09;18.60;99.90
11087;DHT22;5597;47.588;9.642;2023-07-13T08:17:35;18.70;99.90
11087;DHT22;5597;47.588;9.642;2023-07-13T08:20:01;18.70;99.90
11087;DHT22;5597;47.588;9.642;2023-07-13T08:22:27;18.80;99.90
11087;DHT22;5597;47.588;9.642;2023-07-13T08:24:53;18.90;99.90
11087;DHT22;5597;47.588;9.642;2023-07-13T08:27:22;18.80;99.90
11087;DHT22;5597;47.588;9.642;2023-07-13T08:29:48;18.80;99.90
11087;DHT22;5597;47.588;9.642;2023-07-13T08:32:14;18.80;99.90
11087;DHT22;5597;47.588;9.642;2023-07-13T08:34:40;18.80;99.90
11087;DHT22;5597;47.588;9.642;2023-07-13T08:37:06;18.80;99.90
11087;DHT22;5597;47.588;9.642;2023-07-13T08:39:33;18.90;99.90
11087;DHT22;5597;47.588;9.642;2023-07-13T08:42:05;19.00;99.90
11087;DHT22;5597;47.588;9.642;2023-07-13T08:47:28;19.20;99.90
11087;DHT22;5597;47.588;9.642;2023-07-13T08:49:55;19.30;99.90
11087;DHT22;5597;47.588;9.642;2023-07-13T08:52:35;19.30;99.90
11087;DHT22;5597;47.588;9.642;2023-07-13T08:55:09;19.50;99.90
11087;DHT22;5597;47.588;9.642;2023-07-13T08:57:38;19.60;99.90
11087;DHT22;5597;47.588;9.642;2023-07-13T09:00:10;19.80;99.90
11087;DHT22;5597;47.588;9.642;2023-07-13T09:02:46;19.90;99.90
11087;DHT22;5597;47.588;9.642;2023-07-13T09:05:24;20.20;99.90
11087;DHT22;5597;47.588;9.642;2023-07-13T09:10:49;20.50;99.90
11087;DHT22;5597;47.588;9.642;2023-07-13T09:13:30;20.70;99.90
11087;DHT22;5597;47.588;9.642;2023-07-13T09:15:59;20.80;99.90
11087;DHT22;5597;47.588;9.642;2023-07-13T09:18:28;21.00;99.90
11087;DHT22;5597;47.588;9.642;2023-07-13T09:21:19;21.10;99.90
11087;DHT22;5597;47.588;9.642;2023-07-13T09:23:47;21.20;99.90
11087;DHT22;5597;47.588;9.642;2023-07-13T09:26:18;21.30;99.90
11087;DHT22;5597;47.588;9.642;2023-07-13T09:28:47;21.40;99.90
11087;DHT22;5597;47.588;9.642;2023-07-13T09:31:34;21.40;99.90
11087;DHT22;5597;47.588;9.642;2023-07-13T09:34:02;21.50;99.90
11087;DHT22;5597;47.588;9.642;2023-07-13T09:36:30;21.70;99.90
11087;DHT22;5597;47.588;9.642;2023-07-13T09:39:10;21.90;99.90
11087;DHT22;5597;47.588;9.642;2023-07-13T09:42:04;22.00;99.90
11087;DHT22;5597;47.588;9.642;2023-07-13T09:44:38;22.20;99.90
11087;DHT22;5597;47.588;9.642;2023-07-13T09:47:16;22.50;99.90
11087;DHT22;5597;47.588;9.642;2023-07-13T09:49:42;22.80;99.90
11087;DHT22;5597;47.588;9.642;2023-07-13T09:52:15;23.00;99.90
11087;DHT22;5597;47.588;9.642;2023-07-13T09:54:45;23.10;99.90
11087;DHT22;5597;47.588;9.642;2023-07-13T09:57:16;23.10;99.90
11087;DHT22;5597;47.588;9.642;2023-07-13T09:59:47;23.00;99.90
11087;DHT22;5597;47.588;9.642;2023-07-13T10:02:29;23.00;99.90
11087;DHT22;5597;47.588;9.642;2023-07-13T10:04:59;22.90;99.90
11087;DHT22;5597;47.588;9.642;2023-07-13T10:07:25;22.70;99.90
11087;DHT22;5597;47.588;9.642;2023-07-13T10:09:55;22.60;99.90
11087;DHT22;5597;47.588;9.642;2023-07-13T10:12:22;22.50;99.90
11087;DHT22;5597;47.588;9.642;2023-07-13T10:15:00;22.70;99.90
11087;DHT22;5597;47.588;9.642;2023-07-13T10:17:29;23.20;99.90
11087;DHT22;5597;47.588;9.642;2023-07-13T10:20:00;23.60;99.90
11087;DHT22;5597;47.588;9.642;2023-07-13T10:25:19;23.90;99.90
11087;DHT22;5597;47.588;9.642;2023-07-13T10:27:45;23.90;99.90
11087;DHT22;5597;47.588;9.642;2023-07-13T10:30:23;23.80;99.90
11087;DHT22;5597;47.588;9.642;2023-07-13T10:32:51;23.70;99.90
11087;DHT22;5597;47.588;9.642;2023-07-13T10:35:19;23.70;99.90
11087;DHT22;5597;47.588;9.642;2023-07-13T10:40:19;23.90;99.90
11087;DHT22;5597;47.588;9.642;2023-07-13T10:42:48;23.90;99.90
11087;DHT22;5597;47.588;9.642;2023-07-13T10:45:18;24.00;99.90
11087;DHT22;5597;47.588;9.642;2023-07-13T10:47:45;24.00;99.90
11087;DHT22;5597;47.588;9.642;2023-07-13T10:50:21;24.00;99.90
11087;DHT22;5597;47.588;9.642;2023-07-13T10:52:49;23.90;99.90
11087;DHT22;5597;47.588;9.642;2023-07-13T10:55:36;23.90;99.90
11087;DHT22;5597;47.588;9.642;2023-07-13T10:58:13;24.10;99.90
11087;DHT22;5597;47.588;9.642;2023-07-13T11:03:27;24.60;99.90
11087;DHT22;5597;47.588;9.642;2023-07-13T11:06:07;24.80;99.90
11087;DHT22;5597;47.588;9.642;2023-07-13T11:08:36;25.00;99.90
11087;DHT22;5597;47.588;9.642;2023-07-13T11:11:03;25.10;99.90
11087;DHT22;5597;47.588;9.642;2023-07-13T11:18:51;24.80;99.90
11087;DHT22;5597;47.588;9.642;2023-07-13T11:21:25;24.90;99.90
11087;DHT22;5597;47.588;9.642;2023-07-13T11:23:54;24.90;99.90
11087;DHT22;5597;47.588;9.642;2023-07-13T11:31:59;24.30;99.90
11087;DHT22;5597;47.588;9.642;2023-07-13T11:34:34;24.10;99.90
11087;DHT22;5597;47.588;9.642;2023-07-13T11:37:01;23.90;99.90
11087;DHT22;5597;47.588;9.642;2023-07-13T11:39:39;23.90;99.90
11087;DHT22;5597;47.588;9.642;2023-07-13T11:42:10;23.90;99.90
11087;DHT22;5597;47.588;9.642;2023-07-13T11:44:42;23.90;99.90
11087;DHT22;5597;47.588;9.642;2023-07-13T11:47:11;24.00;99.90
11087;DHT22;5597;47.588;9.642;2023-07-13T11:49:49;24.20;99.90
11087;DHT22;5597;47.588;9.642;2023-07-13T11:52:19;24.50;99.90
11087;DHT22;5597;47.588;9.642;2023-07-13T11:54:56;24.50;99.90
11087;DHT22;5597;47.588;9.642;2023-07-13T12:00:02;24.30;99.90
11087;DHT22;5597;47.588;9.642;2023-07-13T12:02:39;24.30;99.90
11087;DHT22;5597;47.588;9.642;2023-07-13T12:05:10;24.20;99.90
11087;DHT22;5597;47.588;9.642;2023-07-13T12:07:38;24.20;99.90
11087;DHT22;5597;47.588;9.642;2023-07-13T12:10:26;24.20;99.90
11087;DHT22;5597;47.588;9.642;2023-07-13T12:13:05;24.10;99.90
11087;DHT22;5597;47.588;9.642;2023-07-13T12:18:21;24.10;99.90
11087;DHT22;5597;47.588;9.642;2023-07-13T12:20:51;24.30;99.90
11087;DHT22;5597;47.588;9.642;2023-07-13T12:25:53;24.80;99.90
11087;DHT22;5597;47.588;9.642;2023-07-13T12:31:02;25.20;99.90
11087;DHT22;5597;47.588;9.642;2023-07-13T12:33:29;25.70;99.90
11087;DHT22;5597;47.588;9.642;2023-07-13T12:35:57;26.30;99.90
11087;DHT22;5597;47.588;9.642;2023-07-13T12:38:25;26.40;99.90
11087;DHT22;5597;47.588;9.642;2023-07-13T12:40:52;26.60;99.90
11087;DHT22;5597;47.588;9.642;2023-07-13T12:43:20;26.90;99.90
11087;DHT22;5597;47.588;9.642;2023-07-13T12:48:22;27.60;99.90
11087;DHT22;5597;47.588;9.642;2023-07-13T12:50:49;27.80;99.90
11087;DHT22;5597;47.588;9.642;2023-07-13T12:53:38;28.00;99.90
11087;DHT22;5597;47.588;9.642;2023-07-13T12:56:05;28.20;99.90
11087;DHT22;5597;47.588;9.642;2023-07-13T12:58:40;28.10;99.90
11087;DHT22;5597;47.588;9.642;2023-07-13T13:01:15;28.10;99.90
11087;DHT22;5597;47.588;9.642;2023-07-13T13:03:47;28.20;99.90
11087;DHT22;5597;47.588;9.642;2023-07-13T13:08:47;28.60;99.90
11087;DHT22;5597;47.588;9.642;2023-07-13T13:11:15;28.80;99.90
11087;DHT22;5597;47.588;9.642;2023-07-13T13:13:44;28.80;99.90
11087;DHT22;5597;47.588;9.642;2023-07-13T13:16:32;28.70;99.90
11087;DHT22;5597;47.588;9.642;2023-07-13T13:19:21;28.70;99.90
11087;DHT22;5597;47.588;9.642;2023-07-13T13:21:50;28.80;99.90
11087;DHT22;5597;47.588;9.642;2023-07-13T13:24:20;29.00;99.90
11087;DHT22;5597;47.588;9.642;2023-07-13T13:26:47;29.30;99.90
11087;DHT22;5597;47.588;9.642;2023-07-13T13:29:17;29.40;99.90
11087;DHT22;5597;47.588;9.642;2023-07-13T13:31:44;29.60;99.90
11087;DHT22;5597;47.588;9.642;2023-07-13T13:34:12;29.80;99.90
11087;DHT22;5597;47.588;9.642;2023-07-13T13:36:39;29.90;99.90
11087;DHT22;5597;47.588;9.642;2023-07-13T13:41:47;29.50;99.90
11087;DHT22;5597;47.588;9.642;2023-07-13T13:44:15;29.30;99.90
11087;DHT22;5597;47.588;9.642;2023-07-13T13:46:41;29.30;99.90
11087;DHT22;5597;47.588;9.642;2023-07-13T13:49:13;29.40;99.90
11087;DHT22;5597;47.588;9.642;2023-07-13T13:51:39;29.50;99.90
11087;DHT22;5597;47.588;9.642;2023-07-13T13:54:11;29.60;99.90
11087;DHT22;5597;47.588;9.642;2023-07-13T13:56:37;29.80;99.90
11087;DHT22;5597;47.588;9.642;2023-07-13T13:59:04;29.80;99.90
11087;DHT22;5597;47.588;9.642;2023-07-13T14:01:31;29.50;99.90
11087;DHT22;5597;47.588;9.642;2023-07-13T14:03:57;29.10;99.90
11087;DHT22;5597;47.588;9.642;2023-07-13T14:06:24;28.60;99.90
11087;DHT22;5597;47.588;9.642;2023-07-13T14:08:50;28.10;99.90
11087;DHT22;5597;47.588;9.642;2023-07-13T14:11:18;27.90;99.90
11087;DHT22;5597;47.588;9.642;2023-07-13T14:13:56;28.00;99.90
11087;DHT22;5597;47.588;9.642;2023-07-13T14:16:32;28.20;99.90
11087;DHT22;5597;47.588;9.642;2023-07-13T14:18:59;28.20;99.90
11087;DHT22;5597;47.588;9.642;2023-07-13T14:21:27;28.30;99.90
11087;DHT22;5597;47.588;9.642;2023-07-13T14:24:01;28.30;99.90
11087;DHT22;5597;47.588;9.642;2023-07-13T14:26:27;28.40;99.90
11087;DHT22;5597;47.588;9.642;2023-07-13T14:28:56;28.70;99.90
11087;DHT22;5597;47.588;9.642;2023-07-13T14:31:24;29.20;99.90
11087;DHT22;5597;47.588;9.642;2023-07-13T14:33:50;29.40;99.90
11087;DHT22;5597;47.588;9.642;2023-07-13T14:36:29;29.40;98.80
11087;DHT22;5597;47.588;9.642;2023-07-13T14:39:09;29.50;99.80
11087;DHT22;5597;47.588;9.642;2023-07-13T14:41:36;29.80;99.90
11087;DHT22;5597;47.588;9.642;2023-07-13T14:44:12;30.00;98.70
11087;DHT22;5597;47.588;9.642;2023-07-13T14:46:38;30.10;98.60
11087;DHT22;5597;47.588;9.642;2023-07-13T14:49:06;30.20;98.30
11087;DHT22;5597;47.588;9.642;2023-07-13T14:51:35;30.30;97.70
11087;DHT22;5597;47.588;9.642;2023-07-13T14:54:05;30.50;99.20
11087;DHT22;5597;47.588;9.642;2023-07-13T14:56:31;30.50;96.20
11087;DHT22;5597;47.588;9.642;2023-07-13T14:58:57;30.50;97.60
11087;DHT22;5597;47.588;9.642;2023-07-13T15:01:23;30.60;97.90
11087;DHT22;5597;47.588;9.642;2023-07-13T15:03:51;30.80;96.80
11087;DHT22;5597;47.588;9.642;2023-07-13T15:06:17;30.90;97.50
11087;DHT22;5597;47.588;9.642;2023-07-13T15:08:44;31.00;97.20
11087;DHT22;5597;47.588;9.642;2023-07-13T15:11:10;31.00;96.40
11087;DHT22;5597;47.588;9.642;2023-07-13T15:13:40;30.90;95.70
11087;DHT22;5597;47.588;9.642;2023-07-13T15:16:18;30.80;97.10
11087;DHT22;5597;47.588;9.642;2023-07-13T15:18:46;30.80;97.70
11087;DHT22;5597;47.588;9.642;2023-07-13T15:21:15;30.90;97.10
11087;DHT22;5597;47.588;9.642;2023-07-13T15:23:43;30.90;95.10
11087;DHT22;5597;47.588;9.642;2023-07-13T15:26:12;30.60;95.10
11087;DHT22;5597;47.588;9.642;2023-07-13T15:28:40;30.30;94.90
11087;DHT22;5597;47.588;9.642;2023-07-13T15:33:42;29.40;94.70
11087;DHT22;5597;47.588;9.642;2023-07-13T15:36:08;29.10;95.50
11087;DHT22;5597;47.588;9.642;2023-07-13T15:38:35;28.80;96.20
11087;DHT22;5597;47.588;9.642;2023-07-13T15:43:42;28.50;98.80
11087;DHT22;5597;47.588;9.642;2023-07-13T15:46:07;28.70;99.20
11087;DHT22;5597;47.588;9.642;2023-07-13T15:48:33;28.90;98.20
11087;DHT22;5597;47.588;9.642;2023-07-13T15:51:03;29.10;98.40
11087;DHT22;5597;47.588;9.642;2023-07-13T15:53:32;29.30;97.90
11087;DHT22;5597;47.588;9.642;2023-07-13T15:56:18;29.60;98.40
11087;DHT22;5597;47.588;9.642;2023-07-13T15:58:44;29.80;98.20
11087;DHT22;5597;47.588;9.642;2023-07-13T16:01:10;30.00;97.20
11087;DHT22;5597;47.588;9.642;2023-07-13T16:03:36;29.90;95.40
11087;DHT22;5597;47.588;9.642;2023-07-13T16:06:02;29.60;95.80
11087;DHT22;5597;47.588;9.642;2023-07-13T16:08:31;29.40;95.20
11087;DHT22;5597;47.588;9.642;2023-07-13T16:10:59;29.30;94.70
11087;DHT22;5597;47.588;9.642;2023-07-13T16:13:25;29.10;96.80
11087;DHT22;5597;47.588;9.642;2023-07-13T16:15:52;29.20;97.60
11087;DHT22;5597;47.588;9.642;2023-07-13T16:18:18;29.30;97.00
11087;DHT22;5597;47.588;9.642;2023-07-13T16:20:45;29.30;96.10
11087;DHT22;5597;47.588;9.642;2023-07-13T16:23:13;29.10;95.70
11087;DHT22;5597;47.588;9.642;2023-07-13T16:25:39;28.80;97.00
11087;DHT22;5597;47.588;9.642;2023-07-13T16:28:06;28.80;98.20
11087;DHT22;5597;47.588;9.642;2023-07-13T16:30:34;28.90;98.80
11087;DHT22;5597;47.588;9.642;2023-07-13T16:33:01;29.00;96.60
11087;DHT22;5597;47.588;9.642;2023-07-13T16:35:34;28.80;97.90
11087;DHT22;5597;47.588;9.642;2023-07-13T16:38:01;28.80;98.70
11087;DHT22;5597;47.588;9.642;2023-07-13T16:40:33;28.90;98.10
11087;DHT22;5597;47.588;9.642;2023-07-13T16:42:59;28.90;97.70